메인 페이지
METAR-TAF:

METAR-TAF

공항 :

니아메, 니제르

위도: 13-29N, 경도: 002-10E, 고도: 223m

현재 날씨관측

예보는 48분 전, 09:00시(UTC)에 발표되었습니다.
13kt
온도 25°C
습도 10%
기압 1016 hPa
시정: 6000m

METAR: DRRN 180900Z 10013KT 6000 NSC 25/M09 Q1016 TEMPO 4000 BLDU

시각: 10:48 (09:48 UTC)

예보

예보는 10 시간 48분 전, 23:00시(UTC)에 발표되었습니다.
예보 대상 시간: 18일 00시부터 19일 06시까지 (UTC)
동북동8kt
시정: 2000m
황사
전환 중
18일 02시부터 18일 04시까지 (UTC)
시정: 3500m
일시적
18일 08시부터 18일 12시까지 (UTC)
18kt
시정: 2500m
날린먼지

TAF: DRRN 172300Z 1800/1906 06008KT 2000 DU NSC BECMG 1802/1804 3500 TEMPO 1808/1812 10018KT 2500 BLDU

4,000개 이상의 공항 관측 자료 및 예보 (METAR 및 TAF 보고).

지도상에서 검색 가능한 기상관측소가 노란 점과 빨간 점으로 표시되어 있습니다.

기상관측소 명을 보려면 표시 위로 마우스를 이동하세요.

날씨 관측과 예보를 보려면 클릭하세요.

지도 변경 : 확대하려면 엑스 표시가 있는 녹색 버튼, 축소하려면 빼기 표시가 있는 녹색 버튼, 다음 페이지의 지도를 보려면 녹색 화살표를 클릭하세요.


METAR-TAF: